createdAt,value
2023-01-18T00:01:38.441Z,11.93
2023-01-18T00:04:11.072Z,12.63
2023-01-18T00:06:43.848Z,12.50
2023-01-18T00:09:16.534Z,12.53
2023-01-18T00:11:49.979Z,12.00
2023-01-18T00:14:23.028Z,12.60
2023-01-18T00:17:02.396Z,12.27
2023-01-18T00:19:36.269Z,12.50
2023-01-18T00:22:09.039Z,12.17
2023-01-18T00:24:41.731Z,12.30
2023-01-18T00:27:14.584Z,11.60
2023-01-18T00:29:47.276Z,12.40
2023-01-18T00:32:21.329Z,12.87
2023-01-18T00:34:54.013Z,12.93
2023-01-18T00:37:27.024Z,13.57
2023-01-18T00:39:59.706Z,13.90
2023-01-18T00:42:49.213Z,14.20
2023-01-18T00:45:21.887Z,15.57
2023-01-18T00:47:58.227Z,15.00
2023-01-18T00:50:31.134Z,13.80
2023-01-18T00:53:03.957Z,12.70
2023-01-18T00:55:36.496Z,12.73
2023-01-18T00:58:09.630Z,12.77
2023-01-18T01:00:42.613Z,13.00
2023-01-18T01:03:17.206Z,12.80
2023-01-18T01:06:14.204Z,13.30
2023-01-18T01:08:50.157Z,13.17
2023-01-18T01:11:22.768Z,13.10
2023-01-18T01:14:12.642Z,12.50
2023-01-18T01:17:02.821Z,12.63
2023-01-18T01:19:54.295Z,13.03
2023-01-18T01:22:44.469Z,13.30
2023-01-18T01:25:34.736Z,11.73
2023-01-18T01:28:07.636Z,12.73
2023-01-18T01:30:40.446Z,12.00
2023-01-18T01:33:13.609Z,11.87
2023-01-18T01:35:47.795Z,11.33
2023-01-18T01:38:26.191Z,11.53
2023-01-18T01:41:00.020Z,11.40
2023-01-18T01:43:43.735Z,12.30
2023-01-18T01:46:19.550Z,11.37
2023-01-18T01:48:55.305Z,11.33
2023-01-18T01:51:35.723Z,11.47
2023-01-18T01:54:13.226Z,11.87
2023-01-18T01:56:47.204Z,12.10
2023-01-18T01:59:23.249Z,11.03
2023-01-18T02:01:56.273Z,11.50
2023-01-18T02:04:29.256Z,10.80
2023-01-18T02:07:03.369Z,10.10
2023-01-18T02:09:36.136Z,10.87
2023-01-18T02:12:08.859Z,10.63
2023-01-18T02:14:41.784Z,11.23
2023-01-18T02:17:19.494Z,11.00
2023-01-18T02:20:19.827Z,11.03
2023-01-18T02:23:10.409Z,10.80
2023-01-18T02:25:53.881Z,10.93
2023-01-18T02:28:31.609Z,10.37
2023-01-18T02:31:10.398Z,11.20
2023-01-18T02:33:46.831Z,10.33
2023-01-18T02:36:23.373Z,10.83
2023-01-18T02:38:59.533Z,11.30
2023-01-18T02:41:49.153Z,11.60
2023-01-18T02:44:45.180Z,11.77
2023-01-18T02:47:18.814Z,11.87
2023-01-18T02:49:51.584Z,12.00
2023-01-18T02:52:38.528Z,12.60
2023-01-18T02:55:17.708Z,11.87
2023-01-18T02:57:50.468Z,11.90
2023-01-18T03:00:28.212Z,11.63
2023-01-18T03:03:01.959Z,12.53
2023-01-18T03:05:36.027Z,11.47
2023-01-18T03:08:11.187Z,11.47
2023-01-18T03:10:48.383Z,12.17
2023-01-18T03:13:26.616Z,11.90
2023-01-18T03:16:05.197Z,12.13
2023-01-18T03:19:01.258Z,12.60
2023-01-18T03:21:38.205Z,12.00
2023-01-18T03:24:10.663Z,12.57
2023-01-18T03:26:47.041Z,11.63
2023-01-18T03:29:38.788Z,12.83
2023-01-18T03:32:30.976Z,11.63
2023-01-18T03:35:07.707Z,11.10
2023-01-18T03:37:41.810Z,11.10
2023-01-18T03:40:18.134Z,10.37
2023-01-18T03:42:53.767Z,10.80
2023-01-18T03:45:29.505Z,11.37
2023-01-18T03:48:03.934Z,10.87
2023-01-18T03:50:40.247Z,10.47
2023-01-18T03:53:14.960Z,9.80
2023-01-18T03:55:50.250Z,9.97
2023-01-18T03:58:25.514Z,9.23
2023-01-18T04:00:58.432Z,8.83
2023-01-18T04:03:33.040Z,8.87
2023-01-18T04:06:07.316Z,8.77
2023-01-18T04:08:40.050Z,9.23
2023-01-18T04:11:13.315Z,8.83
2023-01-18T04:13:46.043Z,8.43
2023-01-18T04:16:19.450Z,8.10
2023-01-18T04:18:54.077Z,8.60
2023-01-18T04:21:26.986Z,8.60
2023-01-18T04:23:59.819Z,9.00
2023-01-18T04:26:38.127Z,8.47
2023-01-18T04:29:10.912Z,8.80
2023-01-18T04:31:43.776Z,8.30
2023-01-18T04:34:17.851Z,9.10
2023-01-18T04:36:53.755Z,10.47
2023-01-18T04:39:26.473Z,10.17
2023-01-18T04:41:59.174Z,9.60
2023-01-18T04:44:31.903Z,9.73
2023-01-18T04:47:05.964Z,10.20
2023-01-18T04:49:40.110Z,9.60
2023-01-18T04:52:12.981Z,8.70
2023-01-18T04:54:45.796Z,9.47
2023-01-18T04:57:20.969Z,8.93
2023-01-18T04:59:53.838Z,9.00
2023-01-18T05:02:26.732Z,8.40
2023-01-18T05:05:00.924Z,8.60
2023-01-18T05:07:34.409Z,8.73
2023-01-18T05:10:07.453Z,9.73
2023-01-18T05:12:40.214Z,8.97
2023-01-18T05:15:15.510Z,9.37
2023-01-18T05:17:50.134Z,10.13
2023-01-18T05:20:24.226Z,9.67
2023-01-18T05:22:57.261Z,9.43
2023-01-18T05:25:30.186Z,10.00
2023-01-18T05:28:03.221Z,9.93
2023-01-18T05:30:38.971Z,9.33
2023-01-18T05:33:11.730Z,9.60
2023-01-18T05:35:50.576Z,7.57
2023-01-18T05:38:23.971Z,8.07
2023-01-18T05:40:57.495Z,8.87
2023-01-18T05:43:30.508Z,7.93
2023-01-18T05:46:04.647Z,8.80
2023-01-18T05:48:38.482Z,9.07
2023-01-18T05:51:12.753Z,9.30
2023-01-18T05:53:45.530Z,8.07
2023-01-18T05:56:18.348Z,7.00
2023-01-18T05:58:51.051Z,8.20
2023-01-18T06:01:23.928Z,8.07
2023-01-18T06:03:56.753Z,7.60
2023-01-18T06:06:30.857Z,7.90
2023-01-18T06:09:03.510Z,7.20
2023-01-18T06:11:36.503Z,7.70
2023-01-18T06:14:10.241Z,7.87
2023-01-18T06:16:42.858Z,7.70
2023-01-18T06:19:15.596Z,8.00
2023-01-18T06:21:49.866Z,8.00
2023-01-18T06:24:22.611Z,7.67
2023-01-18T06:26:55.223Z,7.10
2023-01-18T06:29:27.979Z,7.23
2023-01-18T06:32:00.808Z,8.17
2023-01-18T06:34:34.018Z,8.23
2023-01-18T06:37:08.410Z,7.90
2023-01-18T06:39:41.087Z,8.10
2023-01-18T06:42:16.825Z,7.70
2023-01-18T06:44:49.642Z,6.77
2023-01-18T06:47:22.406Z,8.17
2023-01-18T06:49:56.421Z,6.73
2023-01-18T06:52:30.587Z,6.67
2023-01-18T06:55:03.365Z,7.77
2023-01-18T06:57:36.124Z,6.60
2023-01-18T07:00:10.706Z,7.13
2023-01-18T07:02:43.351Z,6.30
2023-01-18T07:05:16.267Z,6.43
2023-01-18T07:07:50.727Z,6.13
2023-01-18T07:10:23.406Z,6.67
2023-01-18T07:12:58.436Z,6.93
2023-01-18T07:15:31.353Z,6.40
2023-01-18T07:18:04.003Z,5.93
2023-01-18T07:20:36.617Z,5.87
2023-01-18T07:23:15.484Z,6.20
2023-01-18T07:25:48.293Z,6.27
2023-01-18T07:28:21.057Z,5.90
2023-01-18T07:30:53.788Z,6.10
2023-01-18T07:33:31.422Z,6.20
2023-01-18T07:36:06.269Z,5.57
2023-01-18T07:38:40.779Z,6.47
2023-01-18T07:41:14.655Z,5.70
2023-01-18T07:43:47.455Z,5.27
2023-01-18T07:46:20.985Z,5.20
2023-01-18T07:48:54.085Z,5.73
2023-01-18T07:51:26.751Z,5.53
2023-01-18T07:54:00.910Z,4.97
2023-01-18T07:56:33.614Z,5.13
2023-01-18T07:59:06.297Z,5.17
2023-01-18T08:01:39.118Z,4.57
2023-01-18T08:04:12.145Z,5.30
2023-01-18T08:06:49.130Z,4.93
2023-01-18T08:09:25.774Z,4.67
2023-01-18T08:11:58.472Z,5.20
2023-01-18T08:14:31.219Z,5.30
2023-01-18T08:17:07.014Z,5.30
2023-01-18T08:19:39.820Z,4.37
2023-01-18T08:22:12.574Z,5.07
2023-01-18T08:24:46.967Z,5.23
2023-01-18T08:27:19.815Z,5.00
2023-01-18T08:29:52.532Z,5.00
2023-01-18T08:32:25.529Z,5.67
2023-01-18T08:34:58.350Z,4.80
2023-01-18T08:37:31.303Z,5.30
2023-01-18T08:40:05.956Z,4.83
2023-01-18T08:42:38.572Z,5.13
2023-01-18T08:45:11.495Z,5.10
2023-01-18T08:47:44.252Z,5.07
2023-01-18T08:50:17.141Z,5.43
2023-01-18T08:52:52.375Z,5.40
2023-01-18T08:55:27.035Z,5.13
2023-01-18T08:58:00.062Z,4.97
2023-01-18T09:00:32.826Z,6.17
2023-01-18T09:03:06.825Z,5.30
2023-01-18T09:05:40.181Z,5.47
2023-01-18T09:08:15.898Z,5.30
2023-01-18T09:10:49.942Z,5.53
2023-01-18T09:13:22.779Z,5.67
2023-01-18T09:16:00.843Z,5.10
2023-01-18T09:18:33.515Z,5.23
2023-01-18T09:21:07.001Z,5.47
2023-01-18T09:23:40.726Z,5.60
2023-01-18T09:26:17.062Z,5.50
2023-01-18T09:28:51.018Z,5.63
2023-01-18T09:31:25.591Z,5.67
2023-01-18T09:34:17.539Z,5.80
2023-01-18T09:36:53.565Z,5.83
2023-01-18T09:39:26.316Z,6.57
2023-01-18T09:42:02.270Z,6.37
2023-01-18T09:44:36.156Z,7.17
2023-01-18T09:47:13.649Z,5.37
2023-01-18T09:49:52.231Z,6.30
2023-01-18T09:52:28.570Z,6.17
2023-01-18T09:55:05.320Z,5.77
2023-01-18T09:57:55.344Z,5.07
2023-01-18T10:00:30.572Z,5.60
2023-01-18T10:03:08.051Z,5.10
2023-01-18T10:05:42.566Z,5.47
2023-01-18T10:08:17.607Z,5.60
2023-01-18T10:11:05.365Z,5.47
2023-01-18T10:13:43.999Z,5.40
2023-01-18T10:16:16.785Z,6.43
2023-01-18T10:18:51.597Z,5.60
2023-01-18T10:21:35.515Z,4.77
2023-01-18T10:24:19.227Z,6.10
2023-01-18T10:26:54.040Z,5.57
2023-01-18T10:29:36.117Z,5.70
2023-01-18T10:32:11.924Z,5.90
2023-01-18T10:34:47.221Z,5.77
2023-01-18T10:37:27.170Z,5.50
2023-01-18T10:40:05.462Z,5.67
2023-01-18T10:42:41.945Z,5.00
2023-01-18T10:45:20.329Z,4.83
2023-01-18T10:47:54.292Z,5.70
2023-01-18T10:50:37.935Z,5.67
2023-01-18T10:53:21.334Z,5.93
2023-01-18T10:55:55.743Z,5.97
2023-01-18T10:58:30.450Z,5.20
2023-01-18T11:01:05.327Z,5.67
2023-01-18T11:03:46.076Z,5.17
2023-01-18T11:06:20.546Z,5.67
2023-01-18T11:08:53.600Z,4.90
2023-01-18T11:11:53.428Z,5.23
2023-01-18T11:14:27.475Z,5.70
2023-01-18T11:17:02.836Z,5.17
2023-01-18T11:19:35.581Z,5.10
2023-01-18T11:22:12.401Z,6.03
2023-01-18T11:24:45.366Z,5.17
2023-01-18T11:27:22.062Z,5.27
2023-01-18T11:29:55.377Z,5.47
2023-01-18T11:32:32.605Z,5.60
2023-01-18T11:35:10.051Z,5.97
2023-01-18T11:37:44.426Z,6.60
2023-01-18T11:40:28.780Z,5.80
2023-01-18T11:43:03.788Z,6.10
2023-01-18T11:45:40.411Z,5.90
2023-01-18T11:48:22.594Z,5.77
2023-01-18T11:50:57.542Z,5.60
2023-01-18T11:53:41.481Z,6.13
2023-01-18T11:56:16.988Z,6.30
2023-01-18T11:58:50.480Z,6.80
2023-01-18T12:01:27.992Z,5.50
2023-01-18T12:04:04.819Z,6.57
2023-01-18T12:06:44.692Z,6.40
2023-01-18T12:09:24.422Z,6.83
2023-01-18T12:12:18.215Z,6.47
2023-01-18T12:15:00.133Z,5.47
2023-01-18T12:17:46.257Z,5.40
2023-01-18T12:20:26.078Z,5.20
2023-01-18T12:23:23.623Z,5.07
2023-01-18T12:26:12.997Z,4.00
2023-01-18T12:28:55.111Z,5.00
2023-01-18T12:31:32.684Z,4.70
2023-01-18T12:34:12.505Z,4.83
2023-01-18T12:36:57.762Z,4.57
2023-01-18T12:39:40.823Z,4.77
2023-01-18T12:42:15.172Z,5.30
2023-01-18T12:44:53.258Z,4.60
2023-01-18T12:47:34.957Z,4.43
2023-01-18T12:50:16.870Z,6.77
2023-01-18T12:52:53.200Z,4.37
2023-01-18T12:55:26.973Z,6.13
2023-01-18T12:58:01.538Z,4.57
2023-01-18T13:00:37.085Z,4.23
2023-01-18T13:03:11.854Z,4.80
2023-01-18T13:05:51.177Z,4.63
2023-01-18T13:08:40.017Z,4.63
2023-01-18T13:11:17.283Z,4.00
2023-01-18T13:13:52.345Z,4.20
2023-01-18T13:16:33.233Z,4.23
2023-01-18T13:19:07.996Z,4.97
2023-01-18T13:22:00.153Z,3.87
2023-01-18T13:24:44.832Z,4.33
2023-01-18T13:27:18.976Z,4.17
2023-01-18T13:29:51.847Z,7.67
2023-01-18T13:32:27.662Z,4.27
2023-01-18T13:35:18.645Z,3.83
2023-01-18T13:37:56.096Z,3.97
2023-01-18T13:40:34.570Z,4.00
2023-01-18T13:43:29.869Z,4.97
2023-01-18T13:46:03.931Z,4.40
2023-01-18T13:48:56.048Z,4.80
2023-01-18T13:51:49.561Z,4.37
2023-01-18T13:54:41.048Z,5.47
2023-01-18T13:57:17.474Z,4.80
2023-01-18T13:59:52.486Z,4.83
2023-01-18T14:02:28.395Z,4.67
2023-01-18T14:05:07.169Z,4.73
2023-01-18T14:07:42.791Z,5.60
2023-01-18T14:10:23.217Z,8.47
2023-01-18T14:12:56.813Z,9.57
2023-01-18T14:15:38.784Z,5.57
2023-01-18T14:18:24.806Z,4.23
2023-01-18T14:21:10.876Z,5.07
2023-01-18T14:24:02.180Z,6.23
2023-01-18T14:26:36.260Z,5.77
2023-01-18T14:29:14.091Z,5.90
2023-01-18T14:31:49.857Z,13.00
2023-01-18T14:34:39.295Z,7.27
2023-01-18T14:37:27.053Z,6.57
2023-01-18T14:40:07.748Z,6.43
2023-01-18T14:42:43.321Z,15.80
2023-01-18T14:45:20.186Z,6.70
2023-01-18T14:47:54.625Z,5.37
2023-01-18T14:50:28.763Z,6.97
2023-01-18T14:53:01.950Z,5.37
2023-01-18T14:55:39.400Z,5.40
2023-01-18T14:58:15.630Z,11.43
2023-01-18T15:00:49.887Z,5.53
2023-01-18T15:03:26.258Z,5.10
2023-01-18T15:06:01.633Z,5.60
2023-01-18T15:08:35.341Z,5.80
2023-01-18T15:11:08.260Z,5.67
2023-01-18T15:13:47.366Z,6.03
2023-01-18T15:16:24.860Z,5.60
2023-01-18T15:19:01.977Z,5.77
2023-01-18T15:21:35.391Z,6.03
2023-01-18T15:24:09.808Z,6.20
2023-01-18T15:26:44.279Z,6.23
2023-01-18T15:29:18.013Z,6.60
2023-01-18T15:31:54.970Z,7.10
2023-01-18T15:34:30.226Z,7.10
2023-01-18T15:37:04.753Z,6.60
2023-01-18T15:39:48.429Z,6.57
2023-01-18T15:42:21.263Z,6.00
2023-01-18T15:44:54.644Z,4.93
2023-01-18T15:47:29.127Z,5.83
2023-01-18T15:50:04.983Z,5.73
2023-01-18T15:52:39.850Z,12.60
2023-01-18T15:55:20.691Z,7.83
2023-01-18T15:57:56.633Z,7.53
2023-01-18T16:00:30.780Z,6.67
2023-01-18T16:03:04.601Z,7.60
2023-01-18T16:05:38.644Z,6.20
2023-01-18T16:08:22.651Z,28.13
2023-01-18T16:10:56.586Z,8.50
2023-01-18T16:13:38.438Z,7.33
2023-01-18T16:16:15.448Z,8.13
2023-01-18T16:18:49.552Z,7.90
2023-01-18T16:21:27.889Z,8.33
2023-01-18T16:24:00.700Z,7.47
2023-01-18T16:26:33.498Z,8.60
2023-01-18T16:29:07.687Z,7.80
2023-01-18T16:31:41.738Z,9.23
2023-01-18T16:34:22.110Z,8.40
2023-01-18T16:36:56.148Z,7.37
2023-01-18T16:39:28.939Z,7.50
2023-01-18T16:42:02.483Z,7.77
2023-01-18T16:44:36.462Z,7.90
2023-01-18T16:47:10.687Z,8.03
2023-01-18T16:49:44.170Z,7.83
2023-01-18T16:52:22.615Z,7.73
2023-01-18T16:54:55.453Z,8.03
2023-01-18T16:57:29.579Z,7.93
2023-01-18T17:00:02.515Z,8.77
2023-01-18T17:02:35.821Z,8.47
2023-01-18T17:05:10.353Z,8.30
2023-01-18T17:07:45.797Z,8.80
2023-01-18T17:10:20.233Z,6.93
2023-01-18T17:12:52.806Z,9.60
2023-01-18T17:15:28.204Z,8.80
2023-01-18T17:18:00.910Z,8.10
2023-01-18T17:20:34.896Z,7.87
2023-01-18T17:23:09.077Z,7.57
2023-01-18T17:25:42.028Z,7.57
2023-01-18T17:28:15.201Z,8.63
2023-01-18T17:30:49.582Z,7.63
2023-01-18T17:33:23.186Z,8.00
2023-01-18T17:35:56.216Z,8.00
2023-01-18T17:41:07.152Z,8.07
2023-01-18T17:43:42.171Z,8.70
2023-01-18T17:46:16.343Z,7.43
2023-01-18T17:48:49.040Z,8.27
2023-01-18T17:51:21.978Z,8.70
2023-01-18T17:53:59.100Z,8.13
2023-01-18T17:56:32.015Z,7.50
2023-01-18T17:59:07.745Z,8.67
2023-01-18T18:01:40.595Z,9.13
2023-01-18T18:04:14.049Z,9.33
2023-01-18T18:06:54.297Z,8.20
2023-01-18T18:09:28.718Z,9.83
2023-01-18T18:12:04.409Z,8.73
2023-01-18T18:14:39.597Z,8.90
2023-01-18T18:17:12.407Z,8.73
2023-01-18T18:19:48.185Z,9.93
2023-01-18T18:22:21.318Z,9.20
2023-01-18T18:24:55.497Z,9.83
2023-01-18T18:27:37.564Z,10.43
2023-01-18T18:30:18.506Z,9.80
2023-01-18T18:32:51.368Z,9.23
2023-01-18T18:35:27.218Z,8.93
2023-01-18T18:38:00.177Z,10.00
2023-01-18T18:40:34.253Z,9.53
2023-01-18T18:43:07.598Z,9.93
2023-01-18T18:45:41.059Z,9.23
2023-01-18T18:48:14.266Z,10.00
2023-01-18T18:50:47.958Z,9.03
2023-01-18T18:53:23.999Z,10.17
2023-01-18T18:56:03.758Z,10.60
2023-01-18T18:58:37.592Z,10.17
2023-01-18T19:01:18.906Z,9.73
2023-01-18T19:03:52.736Z,9.83
2023-01-18T19:06:28.355Z,11.07
2023-01-18T19:09:01.352Z,11.50
2023-01-18T19:11:37.671Z,11.30
2023-01-18T19:14:14.638Z,11.50
2023-01-18T19:16:50.490Z,10.23
2023-01-18T19:19:26.026Z,11.03
2023-01-18T19:21:58.737Z,10.70
2023-01-18T19:24:34.296Z,12.07
2023-01-18T19:27:08.535Z,11.73
2023-01-18T19:29:41.599Z,11.23
2023-01-18T19:32:14.181Z,11.23
2023-01-18T19:34:46.973Z,12.50
2023-01-18T19:37:19.891Z,11.77
2023-01-18T19:39:52.638Z,13.50
2023-01-18T19:42:26.916Z,13.00
2023-01-18T19:44:59.895Z,11.33
2023-01-18T19:47:32.964Z,12.90
2023-01-18T19:50:06.157Z,12.90
2023-01-18T19:52:38.897Z,11.80
2023-01-18T19:55:11.783Z,12.03
2023-01-18T19:57:45.904Z,11.80
2023-01-18T20:00:19.249Z,12.30
2023-01-18T20:02:53.681Z,12.23
2023-01-18T20:05:27.240Z,12.67
2023-01-18T20:07:59.941Z,13.37
2023-01-18T20:10:33.320Z,13.03
2023-01-18T20:13:07.368Z,11.80
2023-01-18T20:15:41.672Z,11.50
2023-01-18T20:18:14.515Z,12.93
2023-01-18T20:20:47.304Z,12.73
2023-01-18T20:23:20.112Z,13.13
2023-01-18T20:25:57.552Z,14.77
2023-01-18T20:28:31.828Z,15.67
2023-01-18T20:31:05.795Z,14.43
2023-01-18T20:33:38.924Z,14.07
2023-01-18T20:36:12.121Z,14.60
2023-01-18T20:38:45.099Z,13.97
2023-01-18T20:41:18.003Z,13.60
2023-01-18T20:43:52.118Z,12.53
2023-01-18T20:46:27.741Z,13.17
2023-01-18T20:49:02.982Z,13.30
2023-01-18T20:51:36.013Z,13.57
2023-01-18T20:54:08.763Z,13.60
2023-01-18T20:56:41.578Z,12.37
2023-01-18T20:59:15.884Z,12.97
2023-01-18T21:01:48.775Z,12.87
2023-01-18T21:04:21.647Z,12.10
2023-01-18T21:06:57.130Z,12.73
2023-01-18T21:09:29.956Z,12.57
2023-01-18T21:12:03.488Z,13.17
2023-01-18T21:14:37.910Z,12.40
2023-01-18T21:17:10.680Z,13.37
2023-01-18T21:19:46.017Z,13.40
2023-01-18T21:22:19.109Z,12.00
2023-01-18T21:24:53.414Z,12.87
2023-01-18T21:27:27.245Z,13.10
2023-01-18T21:30:01.501Z,13.50
2023-01-18T21:32:34.308Z,12.70
2023-01-18T21:35:08.270Z,12.73
2023-01-18T21:37:41.334Z,12.23
2023-01-18T21:40:14.225Z,13.83
2023-01-18T21:43:04.506Z,13.10
2023-01-18T21:45:58.934Z,13.03
2023-01-18T21:48:32.600Z,12.93
2023-01-18T21:51:23.665Z,13.87
2023-01-18T21:54:14.513Z,15.47
2023-01-18T21:56:47.623Z,14.73
2023-01-18T21:59:20.447Z,13.87
2023-01-18T22:01:54.623Z,13.70
2023-01-18T22:04:44.787Z,15.13
2023-01-18T22:07:17.530Z,13.03
2023-01-18T22:10:03.622Z,12.97
2023-01-18T22:12:39.102Z,11.33
2023-01-18T22:15:12.111Z,12.90
2023-01-18T22:17:46.500Z,13.17
2023-01-18T22:20:21.609Z,12.07
2023-01-18T22:22:56.527Z,12.47
2023-01-18T22:25:29.351Z,12.13
2023-01-18T22:28:04.821Z,12.93
2023-01-18T22:30:38.512Z,12.50
2023-01-18T22:33:12.840Z,13.97
2023-01-18T22:35:47.230Z,12.60
2023-01-18T22:38:20.022Z,12.47
2023-01-18T22:41:04.047Z,11.30
2023-01-18T22:43:37.369Z,11.67
2023-01-18T22:46:12.749Z,12.07
2023-01-18T22:48:47.115Z,11.60
2023-01-18T22:51:20.814Z,11.57
2023-01-18T22:53:53.633Z,10.93
2023-01-18T22:56:26.624Z,11.00
2023-01-18T22:59:00.470Z,11.27
2023-01-18T23:01:34.018Z,11.30
2023-01-18T23:04:08.290Z,11.27
2023-01-18T23:06:46.845Z,10.73
2023-01-18T23:09:19.678Z,10.57
2023-01-18T23:11:52.691Z,10.70
2023-01-18T23:14:43.044Z,10.27
2023-01-18T23:17:34.019Z,10.20
2023-01-18T23:20:13.456Z,9.17
2023-01-18T23:22:46.391Z,10.50
2023-01-18T23:25:19.360Z,9.67
2023-01-18T23:27:52.169Z,9.70
2023-01-18T23:30:25.020Z,9.60
2023-01-18T23:32:58.418Z,9.17
2023-01-18T23:35:32.599Z,9.07
2023-01-18T23:38:06.332Z,10.50
2023-01-18T23:40:56.663Z,9.90
2023-01-18T23:43:47.027Z,9.40
2023-01-18T23:46:37.600Z,9.33
2023-01-18T23:49:28.431Z,10.27
2023-01-18T23:52:19.975Z,10.10
2023-01-18T23:54:52.830Z,8.40
2023-01-18T23:57:28.304Z,8.83
